sensor_id;sensor_type;location;lat;lon;timestamp;pressure;altitude;pressure_sealevel;temperature;humidity
20115;BME280;10218;42.874;25.320;2024-01-25T00:01:49;97377.13;;;2.44;100.00
20115;BME280;10218;42.874;25.320;2024-01-25T00:04:16;97384.03;;;2.23;100.00
20115;BME280;10218;42.874;25.320;2024-01-25T00:06:43;97368.38;;;2.32;100.00
20115;BME280;10218;42.874;25.320;2024-01-25T00:09:10;97385.53;;;2.14;100.00
20115;BME280;10218;42.874;25.320;2024-01-25T00:11:37;97374.34;;;2.23;100.00
20115;BME280;10218;42.874;25.320;2024-01-25T00:14:04;97377.06;;;2.22;100.00
20115;BME280;10218;42.874;25.320;2024-01-25T00:16:31;97368.12;;;2.00;100.00
20115;BME280;10218;42.874;25.320;2024-01-25T00:18:59;97364.47;;;1.79;100.00
20115;BME280;10218;42.874;25.320;2024-01-25T00:21:26;97355.38;;;1.83;100.00
20115;BME280;10218;42.874;25.320;2024-01-25T00:23:53;97349.81;;;1.99;100.00
20115;BME280;10218;42.874;25.320;2024-01-25T00:26:20;97347.59;;;2.17;100.00
20115;BME280;10218;42.874;25.320;2024-01-25T00:28:47;97340.03;;;2.12;100.00
20115;BME280;10218;42.874;25.320;2024-01-25T00:31:14;97329.59;;;2.10;100.00
20115;BME280;10218;42.874;25.320;2024-01-25T00:33:42;97350.38;;;1.91;100.00
20115;BME280;10218;42.874;25.320;2024-01-25T00:36:09;97353.22;;;1.88;100.00
20115;BME280;10218;42.874;25.320;2024-01-25T00:38:37;97347.75;;;1.91;100.00
20115;BME280;10218;42.874;25.320;2024-01-25T00:41:08;97345.44;;;2.22;100.00
20115;BME280;10218;42.874;25.320;2024-01-25T00:43:36;97348.84;;;2.00;100.00
20115;BME280;10218;42.874;25.320;2024-01-25T00:46:03;97353.16;;;2.01;100.00
20115;BME280;10218;42.874;25.320;2024-01-25T00:48:31;97347.69;;;1.80;100.00
20115;BME280;10218;42.874;25.320;2024-01-25T00:50:58;97363.75;;;1.88;100.00
20115;BME280;10218;42.874;25.320;2024-01-25T00:53:26;97348.00;;;1.99;100.00
20115;BME280;10218;42.874;25.320;2024-01-25T00:55:53;97355.31;;;1.96;100.00
20115;BME280;10218;42.874;25.320;2024-01-25T00:58:20;97352.44;;;1.99;100.00
20115;BME280;10218;42.874;25.320;2024-01-25T01:00:48;97365.69;;;2.21;100.00
20115;BME280;10218;42.874;25.320;2024-01-25T01:03:18;97372.25;;;2.15;100.00
20115;BME280;10218;42.874;25.320;2024-01-25T01:05:45;97359.44;;;2.11;100.00
20115;BME280;10218;42.874;25.320;2024-01-25T01:08:13;97357.66;;;2.11;100.00
20115;BME280;10218;42.874;25.320;2024-01-25T01:10:40;97344.34;;;2.13;100.00
20115;BME280;10218;42.874;25.320;2024-01-25T01:13:07;97334.13;;;1.97;100.00
20115;BME280;10218;42.874;25.320;2024-01-25T01:15:34;97348.03;;;2.10;100.00
20115;BME280;10218;42.874;25.320;2024-01-25T01:18:02;97338.88;;;2.27;100.00
20115;BME280;10218;42.874;25.320;2024-01-25T01:20:29;97336.66;;;2.10;100.00
20115;BME280;10218;42.874;25.320;2024-01-25T01:22:56;97335.41;;;2.27;100.00
20115;BME280;10218;42.874;25.320;2024-01-25T01:25:23;97341.78;;;2.46;100.00
20115;BME280;10218;42.874;25.320;2024-01-25T01:27:50;97342.09;;;2.31;100.00
20115;BME280;10218;42.874;25.320;2024-01-25T01:30:17;97334.19;;;2.31;100.00
20115;BME280;10218;42.874;25.320;2024-01-25T01:32:45;97329.84;;;2.19;100.00
20115;BME280;10218;42.874;25.320;2024-01-25T01:35:12;97324.25;;;2.34;100.00
20115;BME280;10218;42.874;25.320;2024-01-25T01:37:39;97319.34;;;2.41;100.00
20115;BME280;10218;42.874;25.320;2024-01-25T01:40:07;97313.50;;;2.48;100.00
20115;BME280;10218;42.874;25.320;2024-01-25T01:42:34;97313.09;;;2.31;100.00
20115;BME280;10218;42.874;25.320;2024-01-25T01:45:01;97314.47;;;2.47;100.00
20115;BME280;10218;42.874;25.320;2024-01-25T01:47:28;97320.06;;;2.54;100.00
20115;BME280;10218;42.874;25.320;2024-01-25T01:49:55;97312.19;;;2.65;100.00
20115;BME280;10218;42.874;25.320;2024-01-25T01:52:22;97301.88;;;2.62;100.00
20115;BME280;10218;42.874;25.320;2024-01-25T01:54:50;97306.28;;;2.39;100.00
20115;BME280;10218;42.874;25.320;2024-01-25T01:57:17;97302.25;;;2.69;100.00
20115;BME280;10218;42.874;25.320;2024-01-25T01:59:45;97276.44;;;2.39;100.00
20115;BME280;10218;42.874;25.320;2024-01-25T02:02:13;97259.66;;;2.40;100.00
20115;BME280;10218;42.874;25.320;2024-01-25T02:04:41;97263.41;;;2.37;100.00
20115;BME280;10218;42.874;25.320;2024-01-25T02:07:08;97279.22;;;2.48;100.00
20115;BME280;10218;42.874;25.320;2024-01-25T02:09:35;97283.66;;;2.48;100.00
20115;BME280;10218;42.874;25.320;2024-01-25T02:12:03;97283.41;;;2.84;100.00
20115;BME280;10218;42.874;25.320;2024-01-25T02:14:31;97274.41;;;2.65;100.00
20115;BME280;10218;42.874;25.320;2024-01-25T02:16:58;97284.34;;;2.50;100.00
20115;BME280;10218;42.874;25.320;2024-01-25T02:19:25;97280.28;;;2.57;100.00
20115;BME280;10218;42.874;25.320;2024-01-25T02:21:53;97262.31;;;2.62;100.00
20115;BME280;10218;42.874;25.320;2024-01-25T02:24:21;97266.16;;;2.36;100.00
20115;BME280;10218;42.874;25.320;2024-01-25T02:26:48;97257.78;;;2.64;100.00
20115;BME280;10218;42.874;25.320;2024-01-25T02:29:15;97257.16;;;2.61;100.00
20115;BME280;10218;42.874;25.320;2024-01-25T02:31:42;97257.78;;;2.64;100.00
20115;BME280;10218;42.874;25.320;2024-01-25T02:34:09;97266.16;;;2.69;100.00
20115;BME280;10218;42.874;25.320;2024-01-25T02:36:36;97264.84;;;2.64;100.00
20115;BME280;10218;42.874;25.320;2024-01-25T02:39:04;97254.03;;;2.55;100.00
20115;BME280;10218;42.874;25.320;2024-01-25T02:41:34;97253.56;;;2.62;100.00
20115;BME280;10218;42.874;25.320;2024-01-25T02:44:01;97238.94;;;2.46;100.00
20115;BME280;10218;42.874;25.320;2024-01-25T02:46:28;97247.44;;;2.72;100.00
20115;BME280;10218;42.874;25.320;2024-01-25T02:48:55;97235.00;;;2.52;100.00
20115;BME280;10218;42.874;25.320;2024-01-25T02:51:22;97232.34;;;2.74;100.00
20115;BME280;10218;42.874;25.320;2024-01-25T02:53:49;97229.97;;;3.14;100.00
20115;BME280;10218;42.874;25.320;2024-01-25T02:56:17;97237.78;;;3.68;100.00
20115;BME280;10218;42.874;25.320;2024-01-25T02:58:44;97228.84;;;3.80;100.00
20115;BME280;10218;42.874;25.320;2024-01-25T03:01:11;97221.56;;;3.94;100.00
20115;BME280;10218;42.874;25.320;2024-01-25T03:03:38;97217.16;;;4.04;100.00
20115;BME280;10218;42.874;25.320;2024-01-25T03:06:06;97219.72;;;4.85;100.00
20115;BME280;10218;42.874;25.320;2024-01-25T03:08:33;97203.31;;;5.01;100.00
20115;BME280;10218;42.874;25.320;2024-01-25T03:11:01;97199.13;;;5.08;100.00
20115;BME280;10218;42.874;25.320;2024-01-25T03:13:30;97208.91;;;5.07;100.00
20115;BME280;10218;42.874;25.320;2024-01-25T03:15:58;97204.72;;;5.05;100.00
20115;BME280;10218;42.874;25.320;2024-01-25T03:18:25;97196.78;;;5.14;100.00
20115;BME280;10218;42.874;25.320;2024-01-25T03:20:52;97189.53;;;5.07;100.00
20115;BME280;10218;42.874;25.320;2024-01-25T03:23:21;97182.59;;;5.25;100.00
20115;BME280;10218;42.874;25.320;2024-01-25T03:25:48;97183.72;;;5.32;100.00
20115;BME280;10218;42.874;25.320;2024-01-25T03:28:15;97171.72;;;5.28;100.00
20115;BME280;10218;42.874;25.320;2024-01-25T03:30:43;97166.69;;;5.44;100.00
20115;BME280;10218;42.874;25.320;2024-01-25T03:33:10;97162.81;;;5.48;100.00
20115;BME280;10218;42.874;25.320;2024-01-25T03:35:37;97166.13;;;5.60;100.00
20115;BME280;10218;42.874;25.320;2024-01-25T03:38:04;97173.06;;;5.80;100.00
20115;BME280;10218;42.874;25.320;2024-01-25T03:40:32;97176.13;;;5.85;100.00
20115;BME280;10218;42.874;25.320;2024-01-25T03:42:59;97176.28;;;6.03;100.00
20115;BME280;10218;42.874;25.320;2024-01-25T03:45:28;97176.91;;;6.24;100.00
20115;BME280;10218;42.874;25.320;2024-01-25T03:47:57;97174.72;;;6.47;100.00
20115;BME280;10218;42.874;25.320;2024-01-25T03:50:24;97170.25;;;6.75;100.00
20115;BME280;10218;42.874;25.320;2024-01-25T03:52:51;97173.50;;;6.69;100.00
20115;BME280;10218;42.874;25.320;2024-01-25T03:55:18;97173.31;;;6.80;100.00
20115;BME280;10218;42.874;25.320;2024-01-25T03:57:45;97165.59;;;7.04;100.00
20115;BME280;10218;42.874;25.320;2024-01-25T04:00:13;97164.78;;;7.39;100.00
20115;BME280;10218;42.874;25.320;2024-01-25T04:02:40;97162.62;;;7.43;100.00
20115;BME280;10218;42.874;25.320;2024-01-25T04:05:07;97159.38;;;7.49;100.00
20115;BME280;10218;42.874;25.320;2024-01-25T04:07:35;97162.50;;;7.44;100.00
20115;BME280;10218;42.874;25.320;2024-01-25T04:10:02;97156.03;;;7.47;100.00
20115;BME280;10218;42.874;25.320;2024-01-25T04:12:29;97161.94;;;7.58;100.00
20115;BME280;10218;42.874;25.320;2024-01-25T04:14:58;97159.38;;;7.66;100.00
20115;BME280;10218;42.874;25.320;2024-01-25T04:17:25;97166.22;;;7.95;100.00
20115;BME280;10218;42.874;25.320;2024-01-25T04:19:52;97165.87;;;8.15;100.00
20115;BME280;10218;42.874;25.320;2024-01-25T04:22:19;97168.41;;;7.99;100.00
20115;BME280;10218;42.874;25.320;2024-01-25T04:24:46;97156.53;;;8.11;100.00
20115;BME280;10218;42.874;25.320;2024-01-25T04:27:15;97154.53;;;8.13;100.00
20115;BME280;10218;42.874;25.320;2024-01-25T04:29:43;97163.50;;;8.30;100.00
20115;BME280;10218;42.874;25.320;2024-01-25T04:32:12;97185.72;;;8.47;100.00
20115;BME280;10218;42.874;25.320;2024-01-25T04:34:39;97166.25;;;8.46;100.00
20115;BME280;10218;42.874;25.320;2024-01-25T04:37:06;97191.78;;;8.65;100.00
20115;BME280;10218;42.874;25.320;2024-01-25T04:39:33;97188.50;;;8.71;100.00
20115;BME280;10218;42.874;25.320;2024-01-25T04:42:00;97190.53;;;8.85;100.00
20115;BME280;10218;42.874;25.320;2024-01-25T04:44:27;97206.50;;;8.77;100.00
20115;BME280;10218;42.874;25.320;2024-01-25T04:46:55;97194.81;;;8.70;100.00
20115;BME280;10218;42.874;25.320;2024-01-25T04:49:22;97195.25;;;8.99;100.00
20115;BME280;10218;42.874;25.320;2024-01-25T04:51:50;97211.91;;;8.93;100.00
20115;BME280;10218;42.874;25.320;2024-01-25T04:54:17;97219.28;;;9.08;100.00
20115;BME280;10218;42.874;25.320;2024-01-25T04:56:44;97204.69;;;9.28;100.00
20115;BME280;10218;42.874;25.320;2024-01-25T04:59:12;97210.59;;;9.06;100.00
20115;BME280;10218;42.874;25.320;2024-01-25T05:01:39;97211.63;;;8.71;100.00
20115;BME280;10218;42.874;25.320;2024-01-25T05:04:06;97224.41;;;9.01;100.00
20115;BME280;10218;42.874;25.320;2024-01-25T05:06:33;97227.72;;;8.95;100.00
20115;BME280;10218;42.874;25.320;2024-01-25T05:09:01;97238.62;;;8.84;100.00
20115;BME280;10218;42.874;25.320;2024-01-25T05:11:28;97241.03;;;8.95;100.00
20115;BME280;10218;42.874;25.320;2024-01-25T05:13:55;97241.75;;;8.71;100.00
20115;BME280;10218;42.874;25.320;2024-01-25T05:16:22;97233.66;;;9.23;100.00
20115;BME280;10218;42.874;25.320;2024-01-25T05:18:49;97249.94;;;9.20;100.00
20115;BME280;10218;42.874;25.320;2024-01-25T05:21:16;97246.66;;;9.26;100.00
20115;BME280;10218;42.874;25.320;2024-01-25T05:23:43;97252.66;;;9.28;100.00
20115;BME280;10218;42.874;25.320;2024-01-25T05:26:10;97241.66;;;9.23;100.00
20115;BME280;10218;42.874;25.320;2024-01-25T05:28:38;97263.31;;;9.28;100.00
20115;BME280;10218;42.874;25.320;2024-01-25T05:31:05;97252.81;;;9.26;100.00
20115;BME280;10218;42.874;25.320;2024-01-25T05:33:36;97274.34;;;9.41;100.00
20115;BME280;10218;42.874;25.320;2024-01-25T05:36:03;97291.97;;;9.26;100.00
20115;BME280;10218;42.874;25.320;2024-01-25T05:38:31;97284.16;;;9.24;100.00
20115;BME280;10218;42.874;25.320;2024-01-25T05:40:59;97293.22;;;9.48;100.00
20115;BME280;10218;42.874;25.320;2024-01-25T05:43:26;97301.97;;;9.24;100.00
20115;BME280;10218;42.874;25.320;2024-01-25T05:45:53;97288.88;;;9.05;100.00
20115;BME280;10218;42.874;25.320;2024-01-25T05:48:20;97303.47;;;8.92;100.00
20115;BME280;10218;42.874;25.320;2024-01-25T05:50:47;97312.56;;;9.16;100.00
20115;BME280;10218;42.874;25.320;2024-01-25T05:53:15;97308.53;;;9.04;100.00
20115;BME280;10218;42.874;25.320;2024-01-25T05:55:45;97314.50;;;8.97;100.00
20115;BME280;10218;42.874;25.320;2024-01-25T05:58:12;97317.91;;;9.16;100.00
20115;BME280;10218;42.874;25.320;2024-01-25T06:00:40;97309.78;;;8.91;100.00
20115;BME280;10218;42.874;25.320;2024-01-25T06:03:07;97319.84;;;9.06;100.00
20115;BME280;10218;42.874;25.320;2024-01-25T06:05:34;97318.44;;;9.19;100.00
20115;BME280;10218;42.874;25.320;2024-01-25T06:08:01;97314.72;;;9.12;100.00
20115;BME280;10218;42.874;25.320;2024-01-25T06:10:29;97304.31;;;9.27;100.00
20115;BME280;10218;42.874;25.320;2024-01-25T06:12:56;97305.97;;;9.28;100.00
20115;BME280;10218;42.874;25.320;2024-01-25T06:15:23;97312.84;;;9.05;100.00
20115;BME280;10218;42.874;25.320;2024-01-25T06:17:50;97307.09;;;8.83;100.00
20115;BME280;10218;42.874;25.320;2024-01-25T06:20:17;97313.66;;;8.97;100.00
20115;BME280;10218;42.874;25.320;2024-01-25T06:22:45;97317.19;;;9.06;100.00
20115;BME280;10218;42.874;25.320;2024-01-25T06:25:12;97295.56;;;9.09;100.00
20115;BME280;10218;42.874;25.320;2024-01-25T06:27:39;97318.75;;;9.16;100.00
20115;BME280;10218;42.874;25.320;2024-01-25T06:30:07;97328.53;;;9.08;100.00
20115;BME280;10218;42.874;25.320;2024-01-25T06:32:34;97319.09;;;9.13;100.00
20115;BME280;10218;42.874;25.320;2024-01-25T06:35:01;97321.47;;;9.24;100.00
20115;BME280;10218;42.874;25.320;2024-01-25T06:37:31;97320.38;;;9.43;100.00
20115;BME280;10218;42.874;25.320;2024-01-25T06:39:58;97329.97;;;9.28;100.00
20115;BME280;10218;42.874;25.320;2024-01-25T06:42:26;97330.12;;;9.26;100.00
20115;BME280;10218;42.874;25.320;2024-01-25T06:44:52;97333.97;;;9.24;100.00
20115;BME280;10218;42.874;25.320;2024-01-25T06:47:20;97329.09;;;10.36;100.00
20115;BME280;10218;42.874;25.320;2024-01-25T06:49:47;97326.37;;;12.09;98.15
20115;BME280;10218;42.874;25.320;2024-01-25T06:52:18;97331.84;;;12.61;84.26
20115;BME280;10218;42.874;25.320;2024-01-25T06:54:46;97319.84;;;14.89;61.42
20115;BME280;10218;42.874;25.320;2024-01-25T06:57:13;97319.69;;;13.55;66.78
20115;BME280;10218;42.874;25.320;2024-01-25T06:59:41;97327.38;;;13.28;71.06
20115;BME280;10218;42.874;25.320;2024-01-25T07:02:08;97323.94;;;13.49;70.67
20115;BME280;10218;42.874;25.320;2024-01-25T07:04:35;97320.91;;;13.88;60.99
20115;BME280;10218;42.874;25.320;2024-01-25T07:07:04;97314.53;;;14.46;60.65
20115;BME280;10218;42.874;25.320;2024-01-25T07:09:32;97310.44;;;14.78;56.58
20115;BME280;10218;42.874;25.320;2024-01-25T07:11:59;97303.37;;;15.67;53.64
20115;BME280;10218;42.874;25.320;2024-01-25T07:14:26;97304.16;;;16.09;51.05
20115;BME280;10218;42.874;25.320;2024-01-25T07:16:53;97290.22;;;14.82;54.60
20115;BME280;10218;42.874;25.320;2024-01-25T07:19:20;97287.16;;;13.64;58.05
20115;BME280;10218;42.874;25.320;2024-01-25T07:21:47;97275.53;;;14.14;58.04
20115;BME280;10218;42.874;25.320;2024-01-25T07:24:15;97259.19;;;14.59;54.86
20115;BME280;10218;42.874;25.320;2024-01-25T07:26:42;97284.69;;;15.53;50.59
20115;BME280;10218;42.874;25.320;2024-01-25T07:29:09;97277.88;;;15.29;50.61
20115;BME280;10218;42.874;25.320;2024-01-25T07:31:36;97288.09;;;15.40;50.43
20115;BME280;10218;42.874;25.320;2024-01-25T07:34:03;97287.72;;;15.84;49.87
20115;BME280;10218;42.874;25.320;2024-01-25T07:36:31;97277.00;;;16.17;47.86
20115;BME280;10218;42.874;25.320;2024-01-25T07:38:58;97276.47;;;16.94;46.48
20115;BME280;10218;42.874;25.320;2024-01-25T07:41:26;97288.84;;;15.62;48.69
20115;BME280;10218;42.874;25.320;2024-01-25T07:43:53;97284.75;;;14.48;50.56
20115;BME280;10218;42.874;25.320;2024-01-25T07:46:22;97275.25;;;15.01;48.51
20115;BME280;10218;42.874;25.320;2024-01-25T07:48:51;97270.22;;;16.87;46.86
20115;BME280;10218;42.874;25.320;2024-01-25T07:51:18;97265.88;;;16.66;46.06
20115;BME280;10218;42.874;25.320;2024-01-25T07:53:46;97260.47;;;18.14;43.91
20115;BME280;10218;42.874;25.320;2024-01-25T07:56:13;97256.47;;;16.03;47.09
20115;BME280;10218;42.874;25.320;2024-01-25T07:58:40;97271.50;;;16.91;44.94
20115;BME280;10218;42.874;25.320;2024-01-25T08:01:08;97276.44;;;17.07;44.56
20115;BME280;10218;42.874;25.320;2024-01-25T08:03:36;97286.19;;;17.08;43.95
20115;BME280;10218;42.874;25.320;2024-01-25T08:06:03;97272.31;;;14.96;48.24
20115;BME280;10218;42.874;25.320;2024-01-25T08:08:31;97287.78;;;16.04;45.74
20115;BME280;10218;42.874;25.320;2024-01-25T08:10:59;97285.56;;;16.53;44.50
20115;BME280;10218;42.874;25.320;2024-01-25T08:13:26;97298.19;;;13.69;48.83
20115;BME280;10218;42.874;25.320;2024-01-25T08:15:57;97287.81;;;14.24;48.48
20115;BME280;10218;42.874;25.320;2024-01-25T08:18:24;97306.56;;;14.81;49.93
20115;BME280;10218;42.874;25.320;2024-01-25T08:20:51;97312.13;;;15.41;47.18
20115;BME280;10218;42.874;25.320;2024-01-25T08:23:18;97315.19;;;15.66;45.74
20115;BME280;10218;42.874;25.320;2024-01-25T08:25:46;97318.63;;;15.95;45.68
20115;BME280;10218;42.874;25.320;2024-01-25T08:28:13;97303.16;;;16.36;43.63
20115;BME280;10218;42.874;25.320;2024-01-25T08:30:40;97313.06;;;14.93;44.67
20115;BME280;10218;42.874;25.320;2024-01-25T08:33:10;97311.28;;;15.75;45.23
20115;BME280;10218;42.874;25.320;2024-01-25T08:35:37;97307.75;;;16.42;43.11
20115;BME280;10218;42.874;25.320;2024-01-25T08:38:06;97330.97;;;14.01;46.66
20115;BME280;10218;42.874;25.320;2024-01-25T08:40:34;97317.56;;;14.22;45.97
20115;BME280;10218;42.874;25.320;2024-01-25T08:43:01;97332.31;;;16.60;42.78
20115;BME280;10218;42.874;25.320;2024-01-25T08:45:28;97336.16;;;15.77;43.29
20115;BME280;10218;42.874;25.320;2024-01-25T08:47:55;97347.94;;;16.24;42.36
20115;BME280;10218;42.874;25.320;2024-01-25T08:50:23;97329.59;;;17.13;40.61
20115;BME280;10218;42.874;25.320;2024-01-25T08:52:52;97334.37;;;18.77;38.00
20115;BME280;10218;42.874;25.320;2024-01-25T08:55:20;97328.72;;;15.79;42.57
20115;BME280;10218;42.874;25.320;2024-01-25T08:57:48;97335.31;;;14.59;44.53
20115;BME280;10218;42.874;25.320;2024-01-25T09:00:15;97334.69;;;13.49;46.58
20115;BME280;10218;42.874;25.320;2024-01-25T09:02:42;97346.28;;;15.41;43.83
20115;BME280;10218;42.874;25.320;2024-01-25T09:05:10;97318.94;;;13.32;48.35
20115;BME280;10218;42.874;25.320;2024-01-25T09:07:37;97316.47;;;17.36;42.33
20115;BME280;10218;42.874;25.320;2024-01-25T09:10:05;97350.69;;;15.83;42.43
20115;BME280;10218;42.874;25.320;2024-01-25T09:12:34;97336.25;;;15.22;43.84
20115;BME280;10218;42.874;25.320;2024-01-25T09:15:02;97341.94;;;15.68;43.78
20115;BME280;10218;42.874;25.320;2024-01-25T09:17:29;97335.31;;;18.20;39.46
20115;BME280;10218;42.874;25.320;2024-01-25T09:19:57;97351.06;;;16.27;41.93
20115;BME280;10218;42.874;25.320;2024-01-25T09:22:27;97342.47;;;15.98;41.67
20115;BME280;10218;42.874;25.320;2024-01-25T09:24:55;97344.03;;;17.58;39.13
20115;BME280;10218;42.874;25.320;2024-01-25T09:27:22;97355.91;;;16.45;41.20
20115;BME280;10218;42.874;25.320;2024-01-25T09:29:49;97339.00;;;15.35;43.09
20115;BME280;10218;42.874;25.320;2024-01-25T09:32:17;97335.59;;;18.12;38.89
20115;BME280;10218;42.874;25.320;2024-01-25T09:34:44;97351.56;;;15.97;42.07
20115;BME280;10218;42.874;25.320;2024-01-25T09:37:11;97333.25;;;16.46;39.58
20115;BME280;10218;42.874;25.320;2024-01-25T09:39:38;97330.44;;;14.48;44.90
20115;BME280;10218;42.874;25.320;2024-01-25T09:42:07;97360.12;;;13.39;47.80
20115;BME280;10218;42.874;25.320;2024-01-25T09:44:34;97349.56;;;11.94;51.17
20115;BME280;10218;42.874;25.320;2024-01-25T09:47:03;97337.25;;;13.13;49.84
20115;BME280;10218;42.874;25.320;2024-01-25T09:49:32;97341.84;;;12.67;51.38
20115;BME280;10218;42.874;25.320;2024-01-25T09:52:01;97339.78;;;12.55;53.35
20115;BME280;10218;42.874;25.320;2024-01-25T09:54:34;97351.59;;;14.15;46.68
20115;BME280;10218;42.874;25.320;2024-01-25T09:57:15;97327.81;;;13.17;47.51
20115;BME280;10218;42.874;25.320;2024-01-25T09:59:45;97324.38;;;14.39;46.11
20115;BME280;10218;42.874;25.320;2024-01-25T10:02:13;97341.44;;;13.31;48.62
20115;BME280;10218;42.874;25.320;2024-01-25T10:04:40;97339.28;;;13.70;47.61
20115;BME280;10218;42.874;25.320;2024-01-25T10:07:08;97327.09;;;14.25;47.09
20115;BME280;10218;42.874;25.320;2024-01-25T10:09:39;97328.13;;;17.17;42.94
20115;BME280;10218;42.874;25.320;2024-01-25T10:12:07;97334.34;;;17.24;40.41
20115;BME280;10218;42.874;25.320;2024-01-25T10:14:35;97318.37;;;16.63;40.81
20115;BME280;10218;42.874;25.320;2024-01-25T10:17:03;97317.34;;;14.38;45.20
20115;BME280;10218;42.874;25.320;2024-01-25T10:19:33;97318.44;;;15.21;43.41
20115;BME280;10218;42.874;25.320;2024-01-25T10:22:01;97303.81;;;15.36;43.63
20115;BME280;10218;42.874;25.320;2024-01-25T10:24:28;97292.19;;;16.38;41.57
20115;BME280;10218;42.874;25.320;2024-01-25T10:26:55;97269.53;;;18.89;38.64
20115;BME280;10218;42.874;25.320;2024-01-25T10:29:25;97294.13;;;16.96;40.87
20115;BME280;10218;42.874;25.320;2024-01-25T10:31:52;97298.78;;;18.05;38.07
20115;BME280;10218;42.874;25.320;2024-01-25T10:34:20;97269.12;;;17.27;40.60
20115;BME280;10218;42.874;25.320;2024-01-25T10:36:50;97257.97;;;16.38;41.26
20115;BME280;10218;42.874;25.320;2024-01-25T10:39:19;97278.91;;;16.43;40.88
20115;BME280;10218;42.874;25.320;2024-01-25T10:41:48;97266.69;;;16.47;40.77
20115;BME280;10218;42.874;25.320;2024-01-25T10:44:17;97255.88;;;18.21;39.07
20115;BME280;10218;42.874;25.320;2024-01-25T10:46:48;97232.66;;;16.19;40.23
20115;BME280;10218;42.874;25.320;2024-01-25T10:49:16;97237.00;;;18.71;37.91
20115;BME280;10218;42.874;25.320;2024-01-25T10:51:45;97256.28;;;17.16;38.31
20115;BME280;10218;42.874;25.320;2024-01-25T10:54:14;97213.91;;;19.11;36.64
20115;BME280;10218;42.874;25.320;2024-01-25T10:56:41;97242.16;;;17.21;38.60
20115;BME280;10218;42.874;25.320;2024-01-25T10:59:10;97207.53;;;18.00;38.10
20115;BME280;10218;42.874;25.320;2024-01-25T11:01:45;97204.78;;;19.79;36.15
20115;BME280;10218;42.874;25.320;2024-01-25T11:04:15;97236.25;;;17.43;36.78
20115;BME280;10218;42.874;25.320;2024-01-25T11:06:44;97217.16;;;17.45;37.92
20115;BME280;10218;42.874;25.320;2024-01-25T11:09:19;97205.91;;;16.44;39.33
20115;BME280;10218;42.874;25.320;2024-01-25T11:11:48;97221.53;;;15.21;41.66
20115;BME280;10218;42.874;25.320;2024-01-25T11:14:16;97206.78;;;14.41;43.16
20115;BME280;10218;42.874;25.320;2024-01-25T11:16:44;97213.56;;;14.65;42.52
20115;BME280;10218;42.874;25.320;2024-01-25T11:19:21;97192.66;;;16.76;40.14
20115;BME280;10218;42.874;25.320;2024-01-25T11:21:52;97198.44;;;16.66;39.38
20115;BME280;10218;42.874;25.320;2024-01-25T11:24:20;97198.91;;;18.16;36.94
20115;BME280;10218;42.874;25.320;2024-01-25T11:26:48;97210.72;;;17.39;38.04
20115;BME280;10218;42.874;25.320;2024-01-25T11:29:20;97193.50;;;17.34;38.04
20115;BME280;10218;42.874;25.320;2024-01-25T11:31:50;97189.56;;;17.36;37.93
20115;BME280;10218;42.874;25.320;2024-01-25T11:34:18;97204.97;;;19.95;34.80
20115;BME280;10218;42.874;25.320;2024-01-25T11:36:45;97188.28;;;16.35;38.86
20115;BME280;10218;42.874;25.320;2024-01-25T11:39:14;97210.22;;;17.11;38.10
20115;BME280;10218;42.874;25.320;2024-01-25T11:41:43;97226.59;;;18.43;35.57
20115;BME280;10218;42.874;25.320;2024-01-25T11:44:11;97213.06;;;17.23;39.17
20115;BME280;10218;42.874;25.320;2024-01-25T11:46:39;97212.72;;;14.99;40.98
20115;BME280;10218;42.874;25.320;2024-01-25T11:49:06;97210.06;;;14.22;42.57
20115;BME280;10218;42.874;25.320;2024-01-25T11:51:34;97204.31;;;12.67;46.57
20115;BME280;10218;42.874;25.320;2024-01-25T11:54:01;97196.75;;;13.00;47.58
20115;BME280;10218;42.874;25.320;2024-01-25T11:56:34;97204.97;;;12.69;48.51
20115;BME280;10218;42.874;25.320;2024-01-25T11:59:05;97196.22;;;11.85;49.96
20115;BME280;10218;42.874;25.320;2024-01-25T12:01:33;97198.88;;;11.85;52.98
20115;BME280;10218;42.874;25.320;2024-01-25T12:04:00;97204.00;;;12.32;53.32
20115;BME280;10218;42.874;25.320;2024-01-25T12:06:29;97205.00;;;11.94;53.85
20115;BME280;10218;42.874;25.320;2024-01-25T12:09:08;97203.69;;;12.13;52.66
20115;BME280;10218;42.874;25.320;2024-01-25T12:11:36;97184.88;;;12.35;51.39
20115;BME280;10218;42.874;25.320;2024-01-25T12:14:05;97196.00;;;12.10;53.19
20115;BME280;10218;42.874;25.320;2024-01-25T12:16:32;97189.53;;;13.00;51.00
20115;BME280;10218;42.874;25.320;2024-01-25T12:19:01;97193.34;;;14.48;46.40
20115;BME280;10218;42.874;25.320;2024-01-25T12:21:28;97190.50;;;15.72;43.38
20115;BME280;10218;42.874;25.320;2024-01-25T12:23:55;97195.94;;;16.32;41.42
20115;BME280;10218;42.874;25.320;2024-01-25T12:26:25;97189.13;;;15.42;42.08
20115;BME280;10218;42.874;25.320;2024-01-25T12:28:52;97198.31;;;14.79;43.46
20115;BME280;10218;42.874;25.320;2024-01-25T12:31:19;97204.00;;;13.92;45.16
20115;BME280;10218;42.874;25.320;2024-01-25T12:33:47;97193.03;;;13.66;46.29
20115;BME280;10218;42.874;25.320;2024-01-25T12:36:14;97203.47;;;13.40;46.77
20115;BME280;10218;42.874;25.320;2024-01-25T12:38:41;97196.75;;;14.57;45.27
20115;BME280;10218;42.874;25.320;2024-01-25T12:41:08;97210.78;;;13.02;47.21
20115;BME280;10218;42.874;25.320;2024-01-25T12:43:35;97194.78;;;12.50;49.48
20115;BME280;10218;42.874;25.320;2024-01-25T12:46:03;97184.66;;;12.74;51.37
20115;BME280;10218;42.874;25.320;2024-01-25T12:48:32;97159.03;;;12.72;52.14
20115;BME280;10218;42.874;25.320;2024-01-25T12:50:59;97189.59;;;12.33;54.82
20115;BME280;10218;42.874;25.320;2024-01-25T12:53:27;97196.72;;;12.41;54.64